»·PEaware :: SWA835 KSAN-KLAS

SWA835 :: KSAN-KLAS

FLIGHT INFORMATION

Flight Status: Arrived
Operator:
Southwest Airlines
More flights by this operator :: More flights under this callsign
Pilot: Pratham R. (19019)
Aircraft: BOEING 737-800
(B738)
More flights by this aircraft type
Origin: KSAN San Diego Intl-Lindbergh
United States
Destination: KLAS McCarran Intl
United States
More flights between these airports :: More routes between these airports
Route: +PADRZ2 CHKNN SEBBY/N0474F330 YELAH MISEN KEPEC6
File this flight plan on PilotEdge
Remarks: PBN / A1B1C1D1S1S2 DOF / 180625 REG / N8305E OPR / SWA PER / C RMK / TCAS SIMBRIEF
Altitude:
(Current/Filed)
34,000ft
Speed:
(Current/Filed)
472kts
Departed: 08-Aug-18 03:01 PM
Arrived: 08-Aug-18 03:56 PM
Distance/Time
Traveled:
225nm/0:55
Distance/Time
To Go:
Arrived

Flight Plot

Page will automatically refresh every two minutes.

Flight plan parsing failed; only flown route is shown


Map Options




Map Legend


Flown Route
Filed Route
Departure Airport
Arrival Airport
Navaid (VOR, NDB)
Fix

Horizontal Profiles

Position Reports

Time Latitude Longitude Heading Altitude Ground
Speed
08-Aug-18 13:55 32.733076 -117.200638 280 17ft 0kts
08-Aug-18 13:56 32.733076 -117.200638 280 17ft 0kts
08-Aug-18 13:57 32.733076 -117.200638 280 17ft 0kts
08-Aug-18 13:58 32.733076 -117.200638 280 17ft 0kts
08-Aug-18 13:59 32.733076 -117.200638 280 17ft 0kts
08-Aug-18 14:00 32.733076 -117.200638 280 17ft 0kts
08-Aug-18 14:01 32.733076 -117.200638 280 17ft 0kts
08-Aug-18 14:02 32.733076 -117.200638 280 17ft 0kts
08-Aug-18 14:03 32.733076 -117.200638 280 17ft 0kts
08-Aug-18 14:04 32.733076 -117.200638 280 17ft 0kts
08-Aug-18 14:05 32.733076 -117.200638 280 17ft 0kts
08-Aug-18 14:06 32.733076 -117.200638 280 17ft 0kts
08-Aug-18 14:07 32.733076 -117.200638 280 17ft 0kts
08-Aug-18 14:08 32.733076 -117.200638 280 17ft 0kts
08-Aug-18 14:09 32.733076 -117.200638 280 17ft 0kts
08-Aug-18 14:10 32.733076 -117.200638 280 17ft 0kts
08-Aug-18 14:11 32.733076 -117.200638 280 17ft 0kts
08-Aug-18 14:12 32.733076 -117.200638 280 17ft 0kts
08-Aug-18 14:13 32.733076 -117.200638 280 17ft 0kts
08-Aug-18 14:14 32.733076 -117.200638 280 17ft 0kts
08-Aug-18 14:15 32.733076 -117.200638 280 17ft 0kts
08-Aug-18 14:16 32.733076 -117.200638 280 17ft 0kts
08-Aug-18 14:17 32.733076 -117.200638 280 17ft 0kts
08-Aug-18 14:18 32.733076 -117.200638 280 17ft 0kts
08-Aug-18 14:19 32.733067 -117.200584 279 17ft 2kts
08-Aug-18 14:20 32.733257 -117.199963 222 17ft 2kts
08-Aug-18 14:21 32.733753 -117.199734 192 17ft 2kts
08-Aug-18 14:22 32.734309 -117.199599 191 17ft 2kts
08-Aug-18 14:23 32.734810 -117.199579 150 17ft 2kts
08-Aug-18 14:24 32.735012 -117.199909 105 17ft 0kts
08-Aug-18 14:25 32.735012 -117.199909 105 17ft 0kts
08-Aug-18 14:26 32.735012 -117.199909 105 17ft 0kts
08-Aug-18 14:27 32.735012 -117.199909 105 17ft 0kts
08-Aug-18 14:28 32.735012 -117.199909 105 17ft 0kts
08-Aug-18 14:29 32.735012 -117.199909 105 17ft 0kts
08-Aug-18 14:30 32.734265 -117.196896 106 17ft 15kts
08-Aug-18 14:31 32.733091 -117.193941 99 21ft 2kts
08-Aug-18 14:32 32.733087 -117.193915 100 21ft 0kts
08-Aug-18 14:33 32.733317 -117.193690 343 21ft 7kts
08-Aug-18 14:34 32.732479 -117.194245 106 21ft 0kts
08-Aug-18 14:35 32.732479 -117.194245 106 21ft 0kts
08-Aug-18 14:36 32.732479 -117.194245 106 21ft 0kts
08-Aug-18 14:37 32.732479 -117.194245 106 21ft 0kts
08-Aug-18 14:38 32.732479 -117.194245 106 21ft 0kts
08-Aug-18 14:39 32.732479 -117.194245 106 21ft 0kts
08-Aug-18 14:40 32.732479 -117.194245 106 21ft 0kts
08-Aug-18 14:41 32.732479 -117.194245 106 21ft 0kts
08-Aug-18 14:42 32.732479 -117.194245 106 21ft 0kts
08-Aug-18 14:43 32.732479 -117.194245 106 21ft 0kts
08-Aug-18 14:44 32.732479 -117.194245 106 21ft 0kts
08-Aug-18 14:45 32.732479 -117.194245 106 21ft 0kts
08-Aug-18 14:46 32.732479 -117.194245 106 21ft 0kts
08-Aug-18 14:47 32.732479 -117.194245 106 21ft 0kts
08-Aug-18 14:48 32.732479 -117.194245 106 21ft 0kts
08-Aug-18 14:49 32.732479 -117.194245 106 21ft 0kts
08-Aug-18 14:50 32.732479 -117.194245 106 21ft 0kts
08-Aug-18 14:51 32.732479 -117.194245 106 21ft 0kts
08-Aug-18 14:52 32.732479 -117.194245 106 21ft 0kts
08-Aug-18 14:53 32.732479 -117.194245 106 21ft 0kts
08-Aug-18 14:54 32.732479 -117.194245 106 21ft 0kts
08-Aug-18 14:55 32.732479 -117.194245 105 21ft 0kts
08-Aug-18 14:56 32.732479 -117.194245 106 21ft 0kts
08-Aug-18 14:57 32.732479 -117.194245 106 21ft 0kts
08-Aug-18 14:58 32.732867 -117.192580 68 20ft 10kts
08-Aug-18 14:59 32.732166 -117.188184 106 18ft 20kts
08-Aug-18 15:00 32.730403 -117.180960 107 17ft 24kts
08-Aug-18 15:01 32.730117 -117.176097 316 24ft 9kts
08-Aug-18 15:02 32.736314 -117.198890 289 443ft 170kts
08-Aug-18 15:03 32.764899 -117.259430 305 2708ft 264kts
08-Aug-18 15:04 32.809486 -117.333422 307 6299ft 290kts
08-Aug-18 15:05 32.859874 -117.408337 311 9806ft 304kts
08-Aug-18 15:06 32.915489 -117.495339 308 11737ft 367kts
08-Aug-18 15:07 32.978927 -117.595339 308 14646ft 396kts
08-Aug-18 15:08 33.046467 -117.701287 306 18119ft 412kts
08-Aug-18 15:09 33.121327 -117.789335 319 21193ft 423kts
08-Aug-18 15:10 33.209228 -117.878140 320 23502ft 442kts
08-Aug-18 15:11 33.304894 -117.971181 320 26201ft 455kts
08-Aug-18 15:12 33.403116 -118.067077 320 28552ft 468kts
08-Aug-18 15:13 33.501536 -118.163595 320 31450ft 462kts
08-Aug-18 15:14 33.598869 -118.250496 334 33020ft 454kts
08-Aug-18 15:15 33.712623 -118.300432 0 33036ft 454kts
08-Aug-18 15:16 33.818538 -118.238443 51 33019ft 457kts
08-Aug-18 15:17 33.888089 -118.120264 54 32997ft 457kts
08-Aug-18 15:18 33.960243 -117.997413 54 32993ft 457kts
08-Aug-18 15:19 34.029055 -117.880855 54 33020ft 457kts
08-Aug-18 15:20 34.100429 -117.761731 50 33048ft 457kts
08-Aug-18 15:21 34.175518 -117.651433 50 33042ft 457kts
08-Aug-18 15:22 34.250131 -117.541054 50 33047ft 457kts
08-Aug-18 15:23 34.323027 -117.432721 50 33052ft 457kts
08-Aug-18 15:24 34.399968 -117.318374 50 33054ft 457kts
08-Aug-18 15:25 34.479094 -117.200899 50 33050ft 457kts
08-Aug-18 15:26 34.559399 -117.081808 50 33037ft 458kts
08-Aug-18 15:27 34.640342 -116.961919 49 33036ft 465kts
08-Aug-18 15:28 34.720997 -116.842616 49 33037ft 471kts
08-Aug-18 15:29 34.803708 -116.720384 49 33037ft 469kts
08-Aug-18 15:30 34.891351 -116.606926 37 29985ft 466kts
08-Aug-18 15:31 34.992360 -116.509534 37 27133ft 468kts
08-Aug-18 15:32 35.094591 -116.410492 37 24284ft 475kts
08-Aug-18 15:33 35.183068 -116.303632 45 22539ft 467kts
08-Aug-18 15:34 35.271716 -116.192320 46 20799ft 446kts
08-Aug-18 15:35 35.357522 -116.084158 46 19146ft 440kts
08-Aug-18 15:36 35.441909 -115.977471 46 17526ft 432kts
08-Aug-18 15:37 35.522163 -115.875705 46 15998ft 424kts
08-Aug-18 15:38 35.602852 -115.773082 46 14441ft 415kts
08-Aug-18 15:39 35.676211 -115.679558 46 13060ft 352kts
08-Aug-18 15:40 35.738678 -115.599878 43 13034ft 313kts
08-Aug-18 15:41 35.820149 -115.570847 2 13036ft 315kts
08-Aug-18 15:42 35.907044 -115.566263 2 13040ft 314kts
08-Aug-18 15:43 35.982918 -115.525815 58 12629ft 310kts
08-Aug-18 15:44 36.014522 -115.431504 69 11497ft 288kts
08-Aug-18 15:45 36.031375 -115.345489 96 10572ft 275kts
08-Aug-18 15:46 36.024467 -115.264745 96 9714ft 266kts
08-Aug-18 15:47 36.018100 -115.182679 95 9048ft 252kts
08-Aug-18 15:48 36.012487 -115.103240 94 8811ft 246kts
08-Aug-18 15:49 36.007378 -115.023612 93 7702ft 240kts
08-Aug-18 15:50 36.002526 -114.943473 93 6527ft 234kts
08-Aug-18 15:51 36.008352 -114.873942 43 5863ft 200kts
08-Aug-18 15:52 36.055230 -114.889493 295 4995ft 208kts
08-Aug-18 15:53 36.072781 -114.954181 276 4439ft 191kts
08-Aug-18 15:54 36.073617 -115.012177 270 3880ft 169kts
08-Aug-18 15:55 36.074198 -115.063747 270 3008ft 155kts
08-Aug-18 15:56 36.073697 -115.109459 270 2274ft 150kts
08-Aug-18 15:57 36.073691 -115.147713 280 2111ft 34kts
08-Aug-18 15:58 36.075701 -115.151591 333 2122ft 14kts
08-Aug-18 15:59 36.079501 -115.151974 356 2116ft 17kts
08-Aug-18 16:00 36.082385 -115.151824 3 2110ft 6kts
08-Aug-18 16:01 36.082696 -115.152147 289 2110ft 0kts
08-Aug-18 16:02 36.082696 -115.152147 289 2110ft 0kts
08-Aug-18 16:03 36.082696 -115.152147 289 2110ft 0kts
08-Aug-18 16:04 36.082696 -115.152147 289 2110ft 0kts
08-Aug-18 16:05 36.082696 -115.152147 289 2110ft 0kts
08-Aug-18 16:06 36.082696 -115.152147 289 2110ft 0kts
08-Aug-18 16:07 36.082696 -115.152147 289 2110ft 0kts
08-Aug-18 16:08 36.082696 -115.152147 289 2110ft 0kts
08-Aug-18 16:09 36.082696 -115.152147 289 2110ft 0kts
08-Aug-18 16:10 36.082696 -115.152147 289 2110ft 0kts

Navigation Log

Ident Type
Flight plan parsing failed, navigation log unavailable